PWSweather.com
Personal Weather Stations
Station Observations
METEACHIET
Pas De Calais, AchietLeGrandFR

Pas De CalaisAchietLeGrandFR

Lat: 50.1302778, Lon: 2.78333333

Elevation: 406.8

Station Type: Davis VP2

http://meteo-achiet.shost.ca/index.php

High Low Average
Temperature 66.6°F19.2°C 55.2°F12.9°C 59.8°F15.4°C
Dew Point 62.3°F16.8°C 54.1°F12.3°C 58.1°F14.5°C
Winds 5.0 mph 8.0 kmh Calm Calm 2.0 mph SW3.2 kmh SW
Wind Gusts 13.0 mph20.9 kmh 2.0 mph3.2 kmh 7.0 mph11.3 kmh
Humidity 97% 84% 94%
Pressure 29.81 in1009.5 mb 29.73 in1006.8 mb -
Precipitation 0.34 in8.6 mm - -
Hour Temp Dew Point Humidity Winds Wind Gusts Pressure Precip Precip Rate Daily Precip Total
12:00 AM 57.4°F14.1°C 56.0°F13.3°C 95% 1.0 mph WSW1.6 kmh WSW 4.0 mph6.4 kmh 29.73 in1006.8 mb 0.02 in0.5 mm 0.00 in0.0 mm 0.02 in0.5 mm
12:10 AM 57.6°F14.2°C 56.1°F13.4°C 95% 2.0 mph WSW3.2 kmh WSW 7.0 mph11.3 kmh 29.74 in1007.1 mb 0.02 in0.5 mm 0.00 in0.0 mm 0.02 in0.5 mm
12:20 AM 57.6°F14.2°C 56.1°F13.4°C 95% 1.0 mph S1.6 kmh S 5.0 mph8.0 kmh 29.74 in1007.1 mb 0.02 in0.5 mm 0.00 in0.0 mm 0.02 in0.5 mm
12:30 AM 57.7°F14.3°C 56.6°F13.7°C 96% 2.0 mph SW3.2 kmh SW 7.0 mph11.3 kmh 29.74 in1007.1 mb 0.02 in0.5 mm 0.00 in0.0 mm 0.02 in0.5 mm
12:40 AM 57.7°F14.3°C 56.6°F13.7°C 96% 2.0 mph SSW3.2 kmh SSW 5.0 mph8.0 kmh 29.73 in1006.8 mb 0.02 in0.5 mm 0.00 in0.0 mm 0.02 in0.5 mm
12:50 AM 57.7°F14.3°C 56.6°F13.7°C 96% 1.0 mph SSW1.6 kmh SSW 5.0 mph8.0 kmh 29.73 in1006.8 mb 0.02 in0.5 mm 0.00 in0.0 mm 0.02 in0.5 mm
01:00 AM 57.7°F14.3°C 56.6°F13.7°C 96% 2.0 mph SW3.2 kmh SW 6.0 mph9.7 kmh 29.73 in1006.8 mb 0.01 in0.3 mm 0.00 in0.0 mm 0.02 in0.5 mm
01:10 AM 57.7°F14.3°C 56.6°F13.7°C 96% 2.0 mph SSW3.2 kmh SSW 6.0 mph9.7 kmh 29.73 in1006.8 mb 0.01 in0.3 mm 0.00 in0.0 mm 0.02 in0.5 mm
01:20 AM 57.7°F14.3°C 56.6°F13.7°C 96% 2.0 mph S3.2 kmh S 4.0 mph6.4 kmh 29.73 in1006.8 mb 0.01 in0.3 mm 0.00 in0.0 mm 0.02 in0.5 mm
01:30 AM 57.9°F14.4°C 56.8°F13.8°C 96% 1.0 mph SSW1.6 kmh SSW 5.0 mph8.0 kmh 29.73 in1006.8 mb 0.00 in0.0 mm 0.00 in0.0 mm 0.02 in0.5 mm
01:40 AM 57.9°F14.4°C 56.8°F13.8°C 96% 1.0 mph SW1.6 kmh SW 4.0 mph6.4 kmh 29.73 in1006.8 mb 0.00 in0.0 mm 0.00 in0.0 mm 0.02 in0.5 mm
01:50 AM 57.9°F14.4°C 56.8°F13.8°C 96% 2.0 mph SW3.2 kmh SW 5.0 mph8.0 kmh 29.74 in1007.1 mb 0.00 in0.0 mm 0.00 in0.0 mm 0.02 in0.5 mm
02:00 AM 58.1°F14.5°C 57.0°F13.9°C 96% 2.0 mph WSW3.2 kmh WSW 6.0 mph9.7 kmh 29.74 in1007.1 mb 0.00 in0.0 mm 0.00 in0.0 mm 0.02 in0.5 mm
02:10 AM 58.3°F14.6°C 57.1°F13.9°C 96% 1.0 mph SW1.6 kmh SW 4.0 mph6.4 kmh 29.74 in1007.1 mb 0.00 in0.0 mm 0.00 in0.0 mm 0.02 in0.5 mm
02:20 AM 58.3°F14.6°C 57.1°F13.9°C 96% 1.0 mph SW1.6 kmh SW 3.0 mph4.8 kmh 29.74 in1007.1 mb 0.00 in0.0 mm 0.00 in0.0 mm 0.02 in0.5 mm
02:30 AM 58.5°F14.7°C 57.3°F14.1°C 96% 2.0 mph SW3.2 kmh SW 7.0 mph11.3 kmh 29.74 in1007.1 mb 0.00 in0.0 mm 0.00 in0.0 mm 0.02 in0.5 mm
02:40 AM 58.5°F14.7°C 57.3°F14.1°C 96% 2.0 mph SW3.2 kmh SW 4.0 mph6.4 kmh 29.73 in1006.8 mb 0.00 in0.0 mm 0.00 in0.0 mm 0.02 in0.5 mm
02:50 AM 58.5°F14.7°C 57.3°F14.1°C 96% 2.0 mph SW3.2 kmh SW 8.0 mph12.9 kmh 29.74 in1007.1 mb 0.00 in0.0 mm 0.00 in0.0 mm 0.02 in0.5 mm
03:00 AM 58.5°F14.7°C 57.3°F14.1°C 96% 2.0 mph WSW3.2 kmh WSW 9.0 mph14.5 kmh 29.73 in1006.8 mb 0.00 in0.0 mm 0.00 in0.0 mm 0.02 in0.5 mm
03:10 AM 58.5°F14.7°C 57.3°F14.1°C 96% 2.0 mph SW3.2 kmh SW 7.0 mph11.3 kmh 29.74 in1007.1 mb 0.00 in0.0 mm 0.00 in0.0 mm 0.02 in0.5 mm
03:20 AM 58.5°F14.7°C 57.3°F14.1°C 96% 2.0 mph SW3.2 kmh SW 6.0 mph9.7 kmh 29.73 in1006.8 mb 0.00 in0.0 mm 0.00 in0.0 mm 0.02 in0.5 mm
03:30 AM 58.3°F14.6°C 57.1°F13.9°C 96% 2.0 mph SW3.2 kmh SW 5.0 mph8.0 kmh 29.73 in1006.8 mb 0.00 in0.0 mm 0.00 in0.0 mm 0.02 in0.5 mm
03:40 AM 58.3°F14.6°C 57.1°F13.9°C 96% 2.0 mph SW3.2 kmh SW 7.0 mph11.3 kmh 29.73 in1006.8 mb 0.00 in0.0 mm 0.00 in0.0 mm 0.02 in0.5 mm
03:50 AM 58.3°F14.6°C 57.1°F13.9°C 96% 2.0 mph SW3.2 kmh SW 6.0 mph9.7 kmh 29.73 in1006.8 mb 0.00 in0.0 mm 0.00 in0.0 mm 0.02 in0.5 mm
04:00 AM 58.5°F14.7°C 57.3°F14.1°C 96% 2.0 mph SW3.2 kmh SW 5.0 mph8.0 kmh 29.73 in1006.8 mb 0.00 in0.0 mm 0.00 in0.0 mm 0.02 in0.5 mm
04:10 AM 58.5°F14.7°C 57.3°F14.1°C 96% 2.0 mph SW3.2 kmh SW 7.0 mph11.3 kmh 29.74 in1007.1 mb 0.00 in0.0 mm 0.00 in0.0 mm 0.02 in0.5 mm
04:20 AM 58.5°F14.7°C 57.3°F14.1°C 96% 2.0 mph SW3.2 kmh SW 6.0 mph9.7 kmh 29.74 in1007.1 mb 0.00 in0.0 mm 0.00 in0.0 mm 0.02 in0.5 mm
04:30 AM 58.5°F14.7°C 57.3°F14.1°C 96% 2.0 mph WSW3.2 kmh WSW 6.0 mph9.7 kmh 29.74 in1007.1 mb 0.00 in0.0 mm 0.00 in0.0 mm 0.02 in0.5 mm
04:40 AM 58.5°F14.7°C 57.3°F14.1°C 96% 2.0 mph S3.2 kmh S 5.0 mph8.0 kmh 29.74 in1007.1 mb 0.00 in0.0 mm 0.00 in0.0 mm 0.02 in0.5 mm
04:50 AM 58.5°F14.7°C 57.3°F14.1°C 96% 1.0 mph SSW1.6 kmh SSW 10.0 mph16.1 kmh 29.74 in1007.1 mb 0.00 in0.0 mm 0.00 in0.0 mm 0.02 in0.5 mm
05:00 AM 58.5°F14.7°C 57.3°F14.1°C 96% 2.0 mph SSE3.2 kmh SSE 4.0 mph6.4 kmh 29.74 in1007.1 mb 0.00 in0.0 mm 0.00 in0.0 mm 0.02 in0.5 mm
05:10 AM 58.5°F14.7°C 57.3°F14.1°C 96% 2.0 mph SSE3.2 kmh SSE 5.0 mph8.0 kmh 29.73 in1006.8 mb 0.00 in0.0 mm 0.00 in0.0 mm 0.02 in0.5 mm
05:20 AM 58.5°F14.7°C 57.3°F14.1°C 96% 1.0 mph S1.6 kmh S 4.0 mph6.4 kmh 29.74 in1007.1 mb 0.00 in0.0 mm 0.00 in0.0 mm 0.02 in0.5 mm
05:30 AM 58.5°F14.7°C 57.3°F14.1°C 96% 2.0 mph SSE3.2 kmh SSE 5.0 mph8.0 kmh 29.74 in1007.1 mb 0.00 in0.0 mm 0.00 in0.0 mm 0.02 in0.5 mm
05:40 AM 58.5°F14.7°C 57.3°F14.1°C 96% 2.0 mph S3.2 kmh S 8.0 mph12.9 kmh 29.74 in1007.1 mb 0.00 in0.0 mm 0.00 in0.0 mm 0.02 in0.5 mm
05:50 AM 58.5°F14.7°C 57.3°F14.1°C 96% 2.0 mph S3.2 kmh S 7.0 mph11.3 kmh 29.74 in1007.1 mb 0.00 in0.0 mm 0.00 in0.0 mm 0.02 in0.5 mm
06:00 AM 58.6°F14.8°C 57.5°F14.2°C 96% 2.0 mph SSE3.2 kmh SSE 7.0 mph11.3 kmh 29.73 in1006.8 mb 0.00 in0.0 mm 0.00 in0.0 mm 0.02 in0.5 mm
06:10 AM 58.6°F14.8°C 57.5°F14.2°C 96% 2.0 mph SSW3.2 kmh SSW 8.0 mph12.9 kmh 29.73 in1006.8 mb 0.00 in0.0 mm 0.00 in0.0 mm 0.02 in0.5 mm
06:20 AM 58.6°F14.8°C 57.5°F14.2°C 96% 2.0 mph SW3.2 kmh SW 6.0 mph9.7 kmh 29.73 in1006.8 mb 0.00 in0.0 mm 0.00 in0.0 mm 0.02 in0.5 mm
06:30 AM 58.8°F14.9°C 57.7°F14.3°C 96% 2.0 mph SSW3.2 kmh SSW 5.0 mph8.0 kmh 29.74 in1007.1 mb 0.00 in0.0 mm 0.00 in0.0 mm 0.02 in0.5 mm
06:40 AM 58.8°F14.9°C 57.7°F14.3°C 96% 2.0 mph SW3.2 kmh SW 6.0 mph9.7 kmh 29.74 in1007.1 mb 0.00 in0.0 mm 0.00 in0.0 mm 0.02 in0.5 mm
06:50 AM 58.8°F14.9°C 57.7°F14.3°C 96% 2.0 mph S3.2 kmh S 5.0 mph8.0 kmh 29.74 in1007.1 mb 0.00 in0.0 mm 0.00 in0.0 mm 0.02 in0.5 mm
07:00 AM 58.8°F14.9°C 57.7°F14.3°C 96% 2.0 mph SW3.2 kmh SW 6.0 mph9.7 kmh 29.74 in1007.1 mb 0.00 in0.0 mm 0.00 in0.0 mm 0.02 in0.5 mm
07:10 AM 59.0°F15.0°C 57.9°F14.4°C 96% 2.0 mph SSE3.2 kmh SSE 7.0 mph11.3 kmh 29.74 in1007.1 mb 0.00 in0.0 mm 0.00 in0.0 mm 0.02 in0.5 mm
07:20 AM 59.2°F15.1°C 58.0°F14.4°C 96% 2.0 mph S3.2 kmh S 8.0 mph12.9 kmh 29.74 in1007.1 mb 0.00 in0.0 mm 0.00 in0.0 mm 0.02 in0.5 mm
07:30 AM 59.2°F15.1°C 58.0°F14.4°C 96% 2.0 mph S3.2 kmh S 6.0 mph9.7 kmh 29.74 in1007.1 mb 0.00 in0.0 mm 0.00 in0.0 mm 0.02 in0.5 mm
07:40 AM 59.2°F15.1°C 58.0°F14.4°C 96% 2.0 mph S3.2 kmh S 6.0 mph9.7 kmh 29.74 in1007.1 mb 0.01 in0.3 mm 0.06 in1.5 mm 0.03 in0.8 mm
07:50 AM 59.2°F15.1°C 58.0°F14.4°C 96% 2.0 mph S3.2 kmh S 6.0 mph9.7 kmh 29.74 in1007.1 mb 0.01 in0.3 mm 0.00 in0.0 mm 0.03 in0.8 mm
08:00 AM 59.4°F15.2°C 58.2°F14.6°C 96% 2.0 mph S3.2 kmh S 6.0 mph9.7 kmh 29.74 in1007.1 mb 0.01 in0.3 mm 0.00 in0.0 mm 0.03 in0.8 mm
08:10 AM 59.4°F15.2°C 58.2°F14.6°C 96% 2.0 mph SSW3.2 kmh SSW 5.0 mph8.0 kmh 29.74 in1007.1 mb 0.01 in0.3 mm 0.00 in0.0 mm 0.03 in0.8 mm
08:20 AM 59.4°F15.2°C 58.2°F14.6°C 96% 2.0 mph WSW3.2 kmh WSW 6.0 mph9.7 kmh 29.75 in1007.5 mb 0.02 in0.5 mm 0.06 in1.5 mm 0.04 in1.0 mm
08:30 AM 59.4°F15.2°C 58.2°F14.6°C 96% 2.0 mph SSW3.2 kmh SSW 8.0 mph12.9 kmh 29.75 in1007.5 mb 0.02 in0.5 mm 0.00 in0.0 mm 0.04 in1.0 mm
08:40 AM 59.5°F15.3°C 58.4°F14.7°C 96% 2.0 mph S3.2 kmh S 6.0 mph9.7 kmh 29.75 in1007.5 mb 0.01 in0.3 mm 0.00 in0.0 mm 0.04 in1.0 mm
08:50 AM 59.5°F15.3°C 58.4°F14.7°C 96% 2.0 mph S3.2 kmh S 9.0 mph14.5 kmh 29.75 in1007.5 mb 0.01 in0.3 mm 0.00 in0.0 mm 0.04 in1.0 mm
09:00 AM 59.5°F15.3°C 58.4°F14.7°C 96% 2.0 mph SE3.2 kmh SE 5.0 mph8.0 kmh 29.75 in1007.5 mb 0.01 in0.3 mm 0.00 in0.0 mm 0.04 in1.0 mm
09:10 AM 59.7°F15.4°C 58.6°F14.8°C 96% 2.0 mph SW3.2 kmh SW 9.0 mph14.5 kmh 29.75 in1007.5 mb 0.01 in0.3 mm 0.00 in0.0 mm 0.04 in1.0 mm
09:20 AM 59.7°F15.4°C 58.6°F14.8°C 96% 2.0 mph SW3.2 kmh SW 7.0 mph11.3 kmh 29.76 in1007.8 mb 0.00 in0.0 mm 0.00 in0.0 mm 0.04 in1.0 mm
09:30 AM 60.1°F15.6°C 59.2°F15.1°C 97% 3.0 mph SW4.8 kmh SW 8.0 mph12.9 kmh 29.76 in1007.8 mb 0.00 in0.0 mm 0.00 in0.0 mm 0.04 in1.0 mm
09:40 AM 60.1°F15.6°C 59.2°F15.1°C 97% 2.0 mph SW3.2 kmh SW 8.0 mph12.9 kmh 29.76 in1007.8 mb 0.00 in0.0 mm 0.00 in0.0 mm 0.04 in1.0 mm
09:50 AM 60.4°F15.8°C 59.6°F15.3°C 97% 3.0 mph SW4.8 kmh SW 9.0 mph14.5 kmh 29.76 in1007.8 mb 0.00 in0.0 mm 0.00 in0.0 mm 0.04 in1.0 mm
10:00 AM 60.8°F16.0°C 59.9°F15.5°C 97% 3.0 mph WSW4.8 kmh WSW 7.0 mph11.3 kmh 29.77 in1008.1 mb 0.00 in0.0 mm 0.00 in0.0 mm 0.04 in1.0 mm
10:10 AM 61.2°F16.2°C 60.3°F15.7°C 97% 2.0 mph SW3.2 kmh SW 10.0 mph16.1 kmh 29.77 in1008.1 mb 0.01 in0.3 mm 0.06 in1.5 mm 0.05 in1.3 mm
10:20 AM 61.2°F16.2°C 60.3°F15.7°C 97% 3.0 mph SW4.8 kmh SW 9.0 mph14.5 kmh 29.77 in1008.1 mb 0.01 in0.3 mm 0.00 in0.0 mm 0.05 in1.3 mm
10:30 AM 61.5°F16.4°C 60.7°F15.9°C 97% 3.0 mph WSW4.8 kmh WSW 7.0 mph11.3 kmh 29.77 in1008.1 mb 0.01 in0.3 mm 0.00 in0.0 mm 0.05 in1.3 mm
10:40 AM 61.7°F16.5°C 60.8°F16.0°C 97% 3.0 mph SW4.8 kmh SW 9.0 mph14.5 kmh 29.76 in1007.8 mb 0.01 in0.3 mm 0.00 in0.0 mm 0.05 in1.3 mm
10:50 AM 62.1°F16.7°C 61.2°F16.2°C 97% 3.0 mph SW4.8 kmh SW 7.0 mph11.3 kmh 29.76 in1007.8 mb 0.01 in0.3 mm 0.00 in0.0 mm 0.05 in1.3 mm
11:00 AM 62.8°F17.1°C 61.9°F16.6°C 97% 3.0 mph WSW4.8 kmh WSW 7.0 mph11.3 kmh 29.76 in1007.8 mb 0.01 in0.3 mm 0.00 in0.0 mm 0.05 in1.3 mm
11:10 AM 63.1°F17.3°C 62.0°F16.7°C 96% 4.0 mph WSW6.4 kmh WSW 10.0 mph16.1 kmh 29.76 in1007.8 mb 0.00 in0.0 mm 0.00 in0.0 mm 0.05 in1.3 mm
11:20 AM 63.7°F17.6°C 62.2°F16.8°C 95% 4.0 mph WSW6.4 kmh WSW 12.0 mph19.3 kmh 29.76 in1007.8 mb 0.00 in0.0 mm 0.00 in0.0 mm 0.05 in1.3 mm
11:30 AM 64.2°F17.9°C 62.2°F16.8°C 93% 3.0 mph WSW4.8 kmh WSW 10.0 mph16.1 kmh 29.76 in1007.8 mb 0.00 in0.0 mm 0.00 in0.0 mm 0.05 in1.3 mm
11:40 AM 64.8°F18.2°C 62.1°F16.7°C 91% 3.0 mph WSW4.8 kmh WSW 12.0 mph19.3 kmh 29.76 in1007.8 mb 0.00 in0.0 mm 0.00 in0.0 mm 0.05 in1.3 mm
11:50 AM 64.4°F18.0°C 61.7°F16.5°C 91% 3.0 mph SW4.8 kmh SW 9.0 mph14.5 kmh 29.76 in1007.8 mb 0.00 in0.0 mm 0.00 in0.0 mm 0.05 in1.3 mm
12:00 PM 64.8°F18.2°C 62.1°F16.7°C 91% 3.0 mph WSW4.8 kmh WSW 10.0 mph16.1 kmh 29.76 in1007.8 mb 0.00 in0.0 mm 0.00 in0.0 mm 0.05 in1.3 mm
12:10 PM 65.3°F18.5°C 62.3°F16.8°C 90% 3.0 mph WSW4.8 kmh WSW 8.0 mph12.9 kmh 29.76 in1007.8 mb 0.00 in0.0 mm 0.00 in0.0 mm 0.05 in1.3 mm
12:20 PM 65.5°F18.6°C 61.5°F16.4°C 87% 4.0 mph WSW6.4 kmh WSW 12.0 mph19.3 kmh 29.76 in1007.8 mb 0.00 in0.0 mm 0.00 in0.0 mm 0.05 in1.3 mm
12:30 PM 65.8°F18.8°C 61.5°F16.4°C 86% 4.0 mph SW6.4 kmh SW 11.0 mph17.7 kmh 29.76 in1007.8 mb 0.00 in0.0 mm 0.00 in0.0 mm 0.05 in1.3 mm
12:40 PM 66.2°F19.0°C 61.6°F16.4°C 85% 3.0 mph WSW4.8 kmh WSW 8.0 mph12.9 kmh 29.75 in1007.5 mb 0.00 in0.0 mm 0.00 in0.0 mm 0.05 in1.3 mm
12:50 PM 66.6°F19.2°C 61.9°F16.6°C 85% 4.0 mph WSW6.4 kmh WSW 12.0 mph19.3 kmh 29.76 in1007.8 mb 0.00 in0.0 mm 0.00 in0.0 mm 0.05 in1.3 mm
01:00 PM 66.2°F19.0°C 61.2°F16.2°C 84% 4.0 mph WSW6.4 kmh WSW 12.0 mph19.3 kmh 29.76 in1007.8 mb 0.00 in0.0 mm 0.00 in0.0 mm 0.05 in1.3 mm
01:10 PM 65.5°F18.6°C 60.5°F15.8°C 84% 4.0 mph SW6.4 kmh SW 12.0 mph19.3 kmh 29.76 in1007.8 mb 0.00 in0.0 mm 0.00 in0.0 mm 0.05 in1.3 mm
01:20 PM 65.1°F18.4°C 60.5°F15.8°C 85% 3.0 mph SW4.8 kmh SW 8.0 mph12.9 kmh 29.76 in1007.8 mb 0.00 in0.0 mm 0.00 in0.0 mm 0.05 in1.3 mm
01:30 PM 65.3°F18.5°C 60.7°F15.9°C 85% 3.0 mph SW4.8 kmh SW 6.0 mph9.7 kmh 29.76 in1007.8 mb 0.00 in0.0 mm 0.00 in0.0 mm 0.05 in1.3 mm
01:40 PM 65.3°F18.5°C 60.3°F15.7°C 84% 3.0 mph SW4.8 kmh SW 8.0 mph12.9 kmh 29.76 in1007.8 mb 0.00 in0.0 mm 0.00 in0.0 mm 0.05 in1.3 mm
01:50 PM 64.9°F18.3°C 60.0°F15.6°C 84% 3.0 mph SW4.8 kmh SW 11.0 mph17.7 kmh 29.76 in1007.8 mb 0.00 in0.0 mm 0.00 in0.0 mm 0.05 in1.3 mm
02:00 PM 64.9°F18.3°C 60.3°F15.7°C 85% 3.0 mph WSW4.8 kmh WSW 10.0 mph16.1 kmh 29.76 in1007.8 mb 0.00 in0.0 mm 0.00 in0.0 mm 0.05 in1.3 mm
02:10 PM 64.6°F18.1°C 60.6°F15.9°C 87% 3.0 mph WSW4.8 kmh WSW 7.0 mph11.3 kmh 29.76 in1007.8 mb 0.00 in0.0 mm 0.00 in0.0 mm 0.05 in1.3 mm
02:20 PM 64.0°F17.8°C 60.1°F15.6°C 87% 4.0 mph WSW6.4 kmh WSW 11.0 mph17.7 kmh 29.76 in1007.8 mb 0.00 in0.0 mm 0.00 in0.0 mm 0.05 in1.3 mm
02:30 PM 64.0°F17.8°C 60.1°F15.6°C 87% 2.0 mph WSW3.2 kmh WSW 6.0 mph9.7 kmh 29.76 in1007.8 mb 0.00 in0.0 mm 0.00 in0.0 mm 0.05 in1.3 mm
02:40 PM 64.2°F17.9°C 60.9°F16.1°C 89% 2.0 mph SW3.2 kmh SW 5.0 mph8.0 kmh 29.76 in1007.8 mb 0.00 in0.0 mm 0.00 in0.0 mm 0.05 in1.3 mm
02:50 PM 63.7°F17.6°C 60.7°F15.9°C 90% 3.0 mph SW4.8 kmh SW 7.0 mph11.3 kmh 29.77 in1008.1 mb 0.00 in0.0 mm 0.00 in0.0 mm 0.05 in1.3 mm
03:00 PM 63.3°F17.4°C 60.6°F15.9°C 91% 2.0 mph SSW3.2 kmh SSW 6.0 mph9.7 kmh 29.76 in1007.8 mb 0.01 in0.3 mm 0.01 in0.3 mm 0.06 in1.5 mm
03:10 PM 63.1°F17.3°C 61.1°F16.2°C 93% 1.0 mph SW1.6 kmh SW 4.0 mph6.4 kmh 29.76 in1007.8 mb 0.01 in0.3 mm 0.00 in0.0 mm 0.06 in1.5 mm
03:20 PM 63.0°F17.2°C 60.9°F16.1°C 93% 2.0 mph SW3.2 kmh SW 5.0 mph8.0 kmh 29.76 in1007.8 mb 0.01 in0.3 mm 0.00 in0.0 mm 0.06 in1.5 mm
03:30 PM 62.8°F17.1°C 60.7°F15.9°C 93% 2.0 mph SSW3.2 kmh SSW 4.0 mph6.4 kmh 29.76 in1007.8 mb 0.02 in0.5 mm 0.06 in1.5 mm 0.06 in1.5 mm
03:40 PM 62.8°F17.1°C 61.0°F16.1°C 94% 2.0 mph SW3.2 kmh SW 5.0 mph8.0 kmh 29.76 in1007.8 mb 0.02 in0.5 mm 0.00 in0.0 mm 0.07 in1.8 mm
03:50 PM 62.8°F17.1°C 61.0°F16.1°C 94% 2.0 mph SW3.2 kmh SW 4.0 mph6.4 kmh 29.76 in1007.8 mb 0.03 in0.8 mm 0.06 in1.5 mm 0.08 in2.0 mm
04:00 PM 62.6°F17.0°C 60.8°F16.0°C 94% 2.0 mph WSW3.2 kmh WSW 9.0 mph14.5 kmh 29.76 in1007.8 mb 0.03 in0.8 mm 0.00 in0.0 mm 0.09 in2.3 mm
04:10 PM 62.4°F16.9°C 60.7°F15.9°C 94% 2.0 mph SW3.2 kmh SW 6.0 mph9.7 kmh 29.75 in1007.5 mb 0.04 in1.0 mm 0.06 in1.5 mm 0.09 in2.3 mm
04:20 PM 62.6°F17.0°C 61.1°F16.2°C 95% 3.0 mph SW4.8 kmh SW 8.0 mph12.9 kmh 29.75 in1007.5 mb 0.05 in1.3 mm 0.06 in1.5 mm 0.10 in2.5 mm
04:30 PM 62.4°F16.9°C 61.0°F16.1°C 95% 2.0 mph S3.2 kmh S 7.0 mph11.3 kmh 29.75 in1007.5 mb 0.04 in1.0 mm 0.00 in0.0 mm 0.10 in2.5 mm
04:40 PM 62.4°F16.9°C 61.0°F16.1°C 95% 3.0 mph SW4.8 kmh SW 9.0 mph14.5 kmh 29.75 in1007.5 mb 0.03 in0.8 mm 0.00 in0.0 mm 0.10 in2.5 mm
04:50 PM 62.4°F16.9°C 61.0°F16.1°C 95% 3.0 mph SSW4.8 kmh SSW 12.0 mph19.3 kmh 29.75 in1007.5 mb 0.02 in0.5 mm 0.00 in0.0 mm 0.10 in2.5 mm
05:00 PM 62.4°F16.9°C 61.0°F16.1°C 95% 4.0 mph S6.4 kmh S 11.0 mph17.7 kmh 29.74 in1007.1 mb 0.02 in0.5 mm 0.00 in0.0 mm 0.10 in2.5 mm
05:10 PM 62.4°F16.9°C 60.7°F15.9°C 94% 3.0 mph SE4.8 kmh SE 8.0 mph12.9 kmh 29.74 in1007.1 mb 0.01 in0.3 mm 0.00 in0.0 mm 0.10 in2.5 mm
05:20 PM 62.6°F17.0°C 60.8°F16.0°C 94% 3.0 mph S4.8 kmh S 10.0 mph16.1 kmh 29.74 in1007.1 mb 0.00 in0.0 mm 0.00 in0.0 mm 0.10 in2.5 mm
05:30 PM 62.6°F17.0°C 60.8°F16.0°C 94% 3.0 mph SSW4.8 kmh SSW 10.0 mph16.1 kmh 29.74 in1007.1 mb 0.00 in0.0 mm 0.00 in0.0 mm 0.10 in2.5 mm
05:40 PM 62.4°F16.9°C 60.7°F15.9°C 94% 2.0 mph SE3.2 kmh SE 6.0 mph9.7 kmh 29.74 in1007.1 mb 0.00 in0.0 mm 0.00 in0.0 mm 0.10 in2.5 mm
05:50 PM 61.3°F16.3°C 59.3°F15.2°C 93% 5.0 mph WNW8.0 kmh WNW 13.0 mph20.9 kmh 29.76 in1007.8 mb 0.08 in2.0 mm 0.48 in12.2 mm 0.18 in4.6 mm
06:00 PM 59.7°F15.4°C 57.7°F14.3°C 93% 4.0 mph WNW6.4 kmh WNW 11.0 mph17.7 kmh 29.76 in1007.8 mb 0.09 in2.3 mm 0.01 in0.3 mm 0.20 in5.1 mm
06:10 PM 59.2°F15.1°C 57.5°F14.2°C 94% 2.0 mph W3.2 kmh W 6.0 mph9.7 kmh 29.76 in1007.8 mb 0.10 in2.5 mm 0.06 in1.5 mm 0.20 in5.1 mm
06:20 PM 59.0°F15.0°C 57.6°F14.2°C 95% 2.0 mph WSW3.2 kmh WSW 6.0 mph9.7 kmh 29.76 in1007.8 mb 0.12 in3.0 mm 0.12 in3.0 mm 0.22 in5.6 mm
06:30 PM 58.8°F14.9°C 57.4°F14.1°C 95% 2.0 mph WSW3.2 kmh WSW 6.0 mph9.7 kmh 29.77 in1008.1 mb 0.13 in3.3 mm 0.06 in1.5 mm 0.23 in5.8 mm
06:40 PM 58.6°F14.8°C 57.2°F14.0°C 95% 2.0 mph WSW3.2 kmh WSW 6.0 mph9.7 kmh 29.77 in1008.1 mb 0.14 in3.6 mm 0.06 in1.5 mm 0.24 in6.1 mm
06:50 PM 58.6°F14.8°C 57.2°F14.0°C 95% 2.0 mph WSW3.2 kmh WSW 7.0 mph11.3 kmh 29.77 in1008.1 mb 0.09 in2.3 mm 0.00 in0.0 mm 0.27 in6.9 mm
07:00 PM 58.6°F14.8°C 57.5°F14.2°C 96% 2.0 mph WSW3.2 kmh WSW 11.0 mph17.7 kmh 29.78 in1008.5 mb 0.08 in2.0 mm 0.00 in0.0 mm 0.28 in7.1 mm
07:10 PM 58.5°F14.7°C 57.3°F14.1°C 96% 3.0 mph W4.8 kmh W 11.0 mph17.7 kmh 29.78 in1008.5 mb 0.08 in2.0 mm 0.00 in0.0 mm 0.28 in7.1 mm
07:20 PM 58.3°F14.6°C 57.1°F13.9°C 96% 2.0 mph WSW3.2 kmh WSW 6.0 mph9.7 kmh 29.78 in1008.5 mb 0.07 in1.8 mm 0.00 in0.0 mm 0.29 in7.4 mm
07:30 PM 57.6°F14.2°C 56.1°F13.4°C 95% 2.0 mph WSW3.2 kmh WSW 6.0 mph9.7 kmh 29.78 in1008.5 mb 0.06 in1.5 mm 0.00 in0.0 mm 0.29 in7.4 mm
07:40 PM 57.0°F13.9°C 55.6°F13.1°C 95% 2.0 mph WSW3.2 kmh WSW 7.0 mph11.3 kmh 29.79 in1008.8 mb 0.05 in1.3 mm 0.00 in0.0 mm 0.30 in7.6 mm
07:50 PM 56.7°F13.7°C 55.2°F12.9°C 95% 3.0 mph SW4.8 kmh SW 9.0 mph14.5 kmh 29.79 in1008.8 mb 0.04 in1.0 mm 0.00 in0.0 mm 0.31 in7.9 mm
08:00 PM 56.1°F13.4°C 54.7°F12.6°C 95% 3.0 mph SW4.8 kmh SW 9.0 mph14.5 kmh 29.79 in1008.8 mb 0.04 in1.0 mm 0.00 in0.0 mm 0.31 in7.9 mm
08:10 PM 55.8°F13.2°C 54.6°F12.6°C 96% 3.0 mph SW4.8 kmh SW 11.0 mph17.7 kmh 29.79 in1008.8 mb 0.05 in1.3 mm 0.06 in1.5 mm 0.33 in8.4 mm
08:20 PM 55.6°F13.1°C 54.2°F12.3°C 95% 2.0 mph SW3.2 kmh SW 6.0 mph9.7 kmh 29.79 in1008.8 mb 0.05 in1.3 mm 0.00 in0.0 mm 0.34 in8.6 mm
08:30 PM 55.6°F13.1°C 54.5°F12.5°C 96% 2.0 mph SW3.2 kmh SW 4.0 mph6.4 kmh 29.79 in1008.8 mb 0.05 in1.3 mm 0.00 in0.0 mm 0.34 in8.6 mm
08:40 PM 55.9°F13.3°C 54.8°F12.7°C 96% 2.0 mph SW3.2 kmh SW 6.0 mph9.7 kmh 29.80 in1009.1 mb 0.04 in1.0 mm 0.00 in0.0 mm 0.34 in8.6 mm
08:50 PM 56.1°F13.4°C 55.0°F12.8°C 96% 1.0 mph S1.6 kmh S 7.0 mph11.3 kmh 29.80 in1009.1 mb 0.03 in0.8 mm 0.00 in0.0 mm 0.34 in8.6 mm
09:00 PM 55.9°F13.3°C 54.8°F12.7°C 96% 2.0 mph SW3.2 kmh SW 6.0 mph9.7 kmh 29.80 in1009.1 mb 0.02 in0.5 mm 0.00 in0.0 mm 0.34 in8.6 mm
09:10 PM 55.8°F13.2°C 54.6°F12.6°C 96% 1.0 mph SW1.6 kmh SW 6.0 mph9.7 kmh 29.80 in1009.1 mb 0.01 in0.3 mm 0.00 in0.0 mm 0.34 in8.6 mm
09:20 PM 55.8°F13.2°C 54.6°F12.6°C 96% 1.0 mph SW1.6 kmh SW 3.0 mph4.8 kmh 29.80 in1009.1 mb 0.00 in0.0 mm 0.00 in0.0 mm 0.34 in8.6 mm
09:30 PM 55.8°F13.2°C 54.6°F12.6°C 96% 1.0 mph WSW1.6 kmh WSW 6.0 mph9.7 kmh 29.81 in1009.5 mb 0.00 in0.0 mm 0.00 in0.0 mm 0.34 in8.6 mm
09:40 PM 55.9°F13.3°C 54.8°F12.7°C 96% 2.0 mph SW3.2 kmh SW 6.0 mph9.7 kmh 29.81 in1009.5 mb 0.00 in0.0 mm 0.00 in0.0 mm 0.34 in8.6 mm
09:50 PM 55.9°F13.3°C 54.8°F12.7°C 96% 2.0 mph WSW3.2 kmh WSW 4.0 mph6.4 kmh 29.81 in1009.5 mb 0.00 in0.0 mm 0.00 in0.0 mm 0.34 in8.6 mm
10:00 PM 56.1°F13.4°C 55.3°F12.9°C 97% 2.0 mph WSW3.2 kmh WSW 7.0 mph11.3 kmh 29.81 in1009.5 mb 0.00 in0.0 mm 0.00 in0.0 mm 0.34 in8.6 mm
10:10 PM 56.3°F13.5°C 55.5°F13.1°C 97% 1.0 mph SW1.6 kmh SW 5.0 mph8.0 kmh 29.81 in1009.5 mb 0.00 in0.0 mm 0.00 in0.0 mm 0.34 in8.6 mm
10:20 PM 56.3°F13.5°C 55.2°F12.9°C 96% 1.0 mph SSW1.6 kmh SSW 4.0 mph6.4 kmh 29.81 in1009.5 mb 0.00 in0.0 mm 0.00 in0.0 mm 0.34 in8.6 mm
10:30 PM 56.3°F13.5°C 55.2°F12.9°C 96% 2.0 mph SSW3.2 kmh SSW 5.0 mph8.0 kmh 29.81 in1009.5 mb 0.00 in0.0 mm 0.00 in0.0 mm 0.34 in8.6 mm
10:40 PM 56.3°F13.5°C 55.5°F13.1°C 97% 2.0 mph SW3.2 kmh SW 4.0 mph6.4 kmh 29.81 in1009.5 mb 0.00 in0.0 mm 0.00 in0.0 mm 0.34 in8.6 mm
10:50 PM 56.1°F13.4°C 55.0°F12.8°C 96% 1.0 mph S1.6 kmh S 4.0 mph6.4 kmh 29.81 in1009.5 mb 0.00 in0.0 mm 0.00 in0.0 mm 0.34 in8.6 mm
11:00 PM 55.8°F13.2°C 54.6°F12.6°C 96% 1.0 mph S1.6 kmh S 5.0 mph8.0 kmh 29.81 in1009.5 mb 0.00 in0.0 mm 0.00 in0.0 mm 0.25 in6.4 mm
11:10 PM 55.8°F13.2°C 54.6°F12.6°C 96% 1.0 mph SSW1.6 kmh SSW 3.0 mph4.8 kmh 29.81 in1009.5 mb 0.00 in0.0 mm 0.00 in0.0 mm 0.25 in6.4 mm
11:20 PM 55.6°F13.1°C 54.5°F12.5°C 96% Calm Calm 2.0 mph3.2 kmh 29.81 in1009.5 mb 0.00 in0.0 mm 0.00 in0.0 mm 0.25 in6.4 mm
11:30 PM 55.6°F13.1°C 54.5°F12.5°C 96% 1.0 mph S1.6 kmh S 4.0 mph6.4 kmh 29.81 in1009.5 mb 0.00 in0.0 mm 0.00 in0.0 mm 0.25 in6.4 mm
11:40 PM 55.4°F13.0°C 54.3°F12.4°C 96% Calm Calm 4.0 mph6.4 kmh 29.81 in1009.5 mb 0.00 in0.0 mm 0.00 in0.0 mm 0.25 in6.4 mm
11:50 PM 55.2°F12.9°C 54.1°F12.3°C 96% 1.0 mph S1.6 kmh S 2.0 mph3.2 kmh 29.81 in1009.5 mb 0.00 in0.0 mm 0.00 in0.0 mm 0.25 in6.4 mm